createdAt,value
2022-08-26T00:00:16.892Z,29.905
2022-08-26T00:05:16.934Z,29.908
2022-08-26T00:10:16.588Z,29.907
2022-08-26T00:15:17.054Z,29.908
2022-08-26T00:20:16.486Z,29.911
2022-08-26T00:25:16.796Z,29.912
2022-08-26T00:30:16.978Z,29.912
2022-08-26T00:35:16.919Z,29.914
2022-08-26T00:40:16.766Z,29.914
2022-08-26T00:45:16.615Z,29.915
2022-08-26T00:50:17.516Z,29.917
2022-08-26T00:55:20.244Z,29.919
2022-08-26T01:00:16.681Z,29.922
2022-08-26T01:05:17.187Z,29.925
2022-08-26T01:10:16.669Z,29.926
2022-08-26T01:15:17.036Z,29.925
2022-08-26T01:20:16.726Z,29.923
2022-08-26T01:25:16.902Z,29.925
2022-08-26T01:30:17.076Z,29.927
2022-08-26T01:35:16.878Z,29.928
2022-08-26T01:40:17.909Z,29.927
2022-08-26T01:45:17.582Z,29.926
2022-08-26T01:50:27.999Z,29.926
2022-08-26T01:55:33.137Z,29.928
2022-08-26T02:00:16.971Z,29.929
2022-08-26T02:05:16.986Z,29.930
2022-08-26T02:10:16.855Z,29.931
2022-08-26T02:15:17.387Z,29.930
2022-08-26T02:20:17.088Z,29.926
2022-08-26T02:25:17.099Z,29.925
2022-08-26T02:30:17.195Z,29.925
2022-08-26T02:35:20.038Z,29.925
2022-08-26T02:40:17.016Z,29.927
2022-08-26T02:45:23.284Z,29.924
2022-08-26T02:50:17.137Z,29.924
2022-08-26T02:55:17.034Z,29.925
2022-08-26T03:00:17.308Z,29.926
2022-08-26T03:05:17.037Z,29.925
2022-08-26T03:10:17.016Z,29.924
2022-08-26T03:15:17.848Z,29.922
2022-08-26T03:20:17.492Z,29.921
2022-08-26T03:25:17.428Z,29.922
2022-08-26T03:30:17.104Z,29.920
2022-08-26T03:35:17.387Z,29.921
2022-08-26T03:40:20.397Z,29.921
2022-08-26T03:45:17.416Z,29.919
2022-08-26T03:50:17.080Z,29.919
2022-08-26T03:55:17.136Z,29.917
2022-08-26T04:00:19.462Z,29.914
2022-08-26T04:05:18.186Z,29.911
2022-08-26T04:10:20.112Z,29.912
2022-08-26T04:15:18.238Z,29.912
2022-08-26T04:20:16.373Z,29.912
2022-08-26T04:25:16.173Z,29.914
2022-08-26T04:30:16.737Z,29.913
2022-08-26T04:35:16.427Z,29.912
2022-08-26T04:40:16.256Z,29.912
2022-08-26T04:45:19.044Z,29.911
2022-08-26T04:50:16.200Z,29.910
2022-08-26T04:55:16.224Z,29.909
2022-08-26T05:00:16.342Z,29.908
2022-08-26T05:05:16.329Z,29.907
2022-08-26T05:10:16.366Z,29.906
2022-08-26T05:15:16.563Z,29.903
2022-08-26T05:20:16.281Z,29.903
2022-08-26T05:25:16.396Z,29.904
2022-08-26T05:30:16.298Z,29.902
2022-08-26T05:35:16.488Z,29.901
2022-08-26T05:40:16.340Z,29.902
2022-08-26T05:45:16.543Z,29.901
2022-08-26T05:50:16.232Z,29.901
2022-08-26T05:55:16.604Z,29.901
2022-08-26T06:00:16.261Z,29.898
2022-08-26T06:05:16.442Z,29.897
2022-08-26T06:10:31.520Z,29.896
2022-08-26T06:15:16.521Z,29.897
2022-08-26T06:20:16.531Z,29.898
2022-08-26T06:25:16.517Z,29.896
2022-08-26T06:30:16.565Z,29.896
2022-08-26T06:35:16.489Z,29.894
2022-08-26T06:40:16.421Z,29.893
2022-08-26T06:45:16.671Z,29.892
2022-08-26T06:50:16.365Z,29.891
2022-08-26T06:55:16.610Z,29.892
2022-08-26T07:00:16.460Z,29.891
2022-08-26T07:05:16.749Z,29.892
2022-08-26T07:10:16.415Z,29.890
2022-08-26T07:15:16.768Z,29.890
2022-08-26T07:20:16.430Z,29.889
2022-08-26T07:25:16.844Z,29.890
2022-08-26T07:30:16.672Z,29.890
2022-08-26T07:35:16.650Z,29.892
2022-08-26T07:40:19.214Z,29.888
2022-08-26T07:45:17.058Z,29.884
2022-08-26T07:50:16.709Z,29.884
2022-08-26T07:55:16.793Z,29.882
2022-08-26T08:00:16.736Z,29.883
2022-08-26T08:05:16.899Z,29.883
2022-08-26T08:10:16.680Z,29.887
2022-08-26T08:15:16.872Z,29.887
2022-08-26T08:20:16.566Z,29.888
2022-08-26T08:25:16.681Z,29.888
2022-08-26T08:30:20.852Z,29.889
2022-08-26T08:35:16.925Z,29.890
2022-08-26T08:40:16.748Z,29.890
2022-08-26T08:45:16.892Z,29.894
2022-08-26T08:50:16.655Z,29.892
2022-08-26T08:55:18.171Z,29.889
2022-08-26T09:00:16.844Z,29.888
2022-08-26T09:05:16.860Z,29.886
2022-08-26T09:10:16.976Z,29.884
2022-08-26T09:15:16.830Z,29.881
2022-08-26T09:20:16.657Z,29.880
2022-08-26T09:25:16.976Z,29.879
2022-08-26T09:30:16.949Z,29.882
2022-08-26T09:35:16.823Z,29.882
2022-08-26T09:40:16.902Z,29.884
2022-08-26T09:45:17.149Z,29.885
2022-08-26T09:50:16.851Z,29.884
2022-08-26T09:55:17.129Z,29.885
2022-08-26T10:00:16.965Z,29.882
2022-08-26T10:05:16.950Z,29.882
2022-08-26T10:10:16.760Z,29.883
2022-08-26T10:15:17.217Z,29.882
2022-08-26T10:20:23.325Z,29.883
2022-08-26T10:25:17.025Z,29.885
2022-08-26T10:30:16.941Z,29.886
2022-08-26T10:35:17.084Z,29.887
2022-08-26T10:40:17.017Z,29.887
2022-08-26T10:45:17.107Z,29.887
2022-08-26T10:50:17.996Z,29.887
2022-08-26T10:55:17.202Z,29.885
2022-08-26T11:00:17.107Z,29.881
2022-08-26T11:05:17.241Z,29.882
2022-08-26T11:10:17.107Z,29.883
2022-08-26T11:15:17.116Z,29.884
2022-08-26T11:20:16.956Z,29.883
2022-08-26T11:25:18.172Z,29.881
2022-08-26T11:30:18.315Z,29.880
2022-08-26T11:35:17.097Z,29.880
2022-08-26T11:40:17.059Z,29.881
2022-08-26T11:45:17.427Z,29.881
2022-08-26T11:50:16.953Z,29.879
2022-08-26T11:55:17.094Z,29.878
2022-08-26T12:00:20.957Z,29.879
2022-08-26T12:05:17.114Z,29.881
2022-08-26T12:10:17.092Z,29.881
2022-08-26T12:15:17.521Z,29.880
2022-08-26T12:20:17.799Z,29.877
2022-08-26T12:25:18.174Z,29.877
2022-08-26T12:30:17.957Z,29.875
2022-08-26T12:35:17.424Z,29.874
2022-08-26T12:40:17.169Z,29.874
2022-08-26T12:45:17.505Z,29.879
2022-08-26T12:50:17.222Z,29.880
2022-08-26T12:55:17.641Z,29.880
2022-08-26T13:00:17.347Z,29.877
2022-08-26T13:05:17.219Z,29.878
2022-08-26T13:10:17.303Z,29.879
2022-08-26T13:15:17.229Z,29.878
2022-08-26T13:20:17.103Z,29.878
2022-08-26T13:25:19.659Z,29.877
2022-08-26T13:30:17.248Z,29.875
2022-08-26T13:35:17.345Z,29.874
2022-08-26T13:40:17.252Z,29.875
2022-08-26T13:45:17.570Z,29.873
2022-08-26T13:50:17.262Z,29.873
2022-08-26T13:55:17.469Z,29.874
2022-08-26T14:00:17.739Z,29.874
2022-08-26T14:05:17.454Z,29.876
2022-08-26T14:10:17.253Z,29.879
2022-08-26T14:15:17.472Z,29.878
2022-08-26T14:20:17.510Z,29.876
2022-08-26T14:25:17.366Z,29.874
2022-08-26T14:30:17.473Z,29.873
2022-08-26T14:35:17.830Z,29.871
2022-08-26T14:40:17.420Z,29.869
2022-08-26T14:45:17.529Z,29.868
2022-08-26T14:50:17.330Z,29.869
2022-08-26T14:55:17.630Z,29.867
2022-08-26T15:00:17.508Z,29.865
2022-08-26T15:05:18.653Z,29.863
2022-08-26T15:10:17.427Z,29.865
2022-08-26T15:15:18.356Z,29.863
2022-08-26T15:20:17.424Z,29.861
2022-08-26T15:25:17.533Z,29.861
2022-08-26T15:30:17.687Z,29.861
2022-08-26T15:35:17.574Z,29.858
2022-08-26T15:40:17.553Z,29.858
2022-08-26T15:45:24.818Z,29.856
2022-08-26T15:50:17.425Z,29.856
2022-08-26T15:55:17.805Z,29.855
2022-08-26T16:00:17.968Z,29.852
2022-08-26T16:05:17.833Z,29.853
2022-08-26T16:10:17.669Z,29.851
2022-08-26T16:15:17.681Z,29.850
2022-08-26T16:20:17.564Z,29.847
2022-08-26T16:25:17.894Z,29.846
2022-08-26T16:30:17.690Z,29.846
2022-08-26T16:35:20.347Z,29.842
2022-08-26T16:40:17.698Z,29.841
2022-08-26T16:45:17.908Z,29.837
2022-08-26T16:50:17.615Z,29.835
2022-08-26T16:55:18.053Z,29.832
2022-08-26T17:00:17.649Z,29.829
2022-08-26T17:05:18.513Z,29.825
2022-08-26T17:10:17.631Z,29.822
2022-08-26T17:15:17.838Z,29.819
2022-08-26T17:20:17.759Z,29.817
2022-08-26T17:25:17.761Z,29.813
2022-08-26T17:30:18.664Z,29.811
2022-08-26T17:35:17.803Z,29.808
2022-08-26T17:40:17.863Z,29.806
2022-08-26T17:45:17.915Z,29.803
2022-08-26T17:50:17.855Z,29.800
2022-08-26T17:55:18.029Z,29.795
2022-08-26T18:00:18.242Z,29.792
2022-08-26T18:05:17.908Z,29.788
2022-08-26T18:10:17.807Z,29.784
2022-08-26T18:15:18.316Z,29.782
2022-08-26T18:20:17.707Z,29.777
2022-08-26T18:25:17.960Z,29.770
2022-08-26T18:30:17.890Z,29.770
2022-08-26T18:35:17.995Z,29.766
2022-08-26T18:40:17.978Z,29.765
2022-08-26T18:45:18.145Z,29.762
2022-08-26T18:50:17.977Z,29.759
2022-08-26T18:55:18.010Z,29.758
2022-08-26T19:00:18.085Z,29.758
2022-08-26T19:05:18.256Z,29.759
2022-08-26T19:10:17.938Z,29.764
2022-08-26T19:15:18.121Z,29.762
2022-08-26T19:20:17.877Z,29.758
2022-08-26T19:25:18.232Z,29.753
2022-08-26T19:30:17.875Z,29.749
2022-08-26T19:35:18.093Z,29.747
2022-08-26T19:40:18.093Z,29.746
2022-08-26T19:45:24.630Z,29.742
2022-08-26T19:50:17.882Z,29.742
2022-08-26T19:55:18.083Z,29.738
2022-08-26T20:00:18.305Z,29.739
2022-08-26T20:05:18.171Z,29.742
2022-08-26T20:10:18.187Z,29.746
2022-08-26T20:15:18.493Z,29.745
2022-08-26T20:20:28.516Z,29.744
2022-08-26T20:25:18.224Z,29.749
2022-08-26T20:30:18.418Z,29.751
2022-08-26T20:35:18.162Z,29.752
2022-08-26T20:40:19.061Z,29.746
2022-08-26T20:45:18.616Z,29.748
2022-08-26T20:50:18.049Z,29.751
2022-08-26T20:55:18.132Z,29.756
2022-08-26T21:00:18.195Z,29.758
2022-08-26T21:05:18.611Z,29.760
2022-08-26T21:10:16.221Z,29.763
2022-08-26T21:15:16.430Z,29.766
2022-08-26T21:20:16.172Z,29.771
2022-08-26T21:25:16.443Z,29.778
2022-08-26T21:30:16.341Z,29.766
2022-08-26T21:35:16.274Z,29.761
2022-08-26T21:40:16.449Z,29.759
2022-08-26T21:45:16.381Z,29.766
2022-08-26T21:50:16.295Z,29.771
2022-08-26T21:55:16.485Z,29.774
2022-08-26T22:00:16.483Z,29.779
2022-08-26T22:05:16.323Z,29.782
2022-08-26T22:10:16.315Z,29.781
2022-08-26T22:15:16.904Z,29.784
2022-08-26T22:20:16.588Z,29.783
2022-08-26T22:25:16.374Z,29.785
2022-08-26T22:30:16.529Z,29.784
2022-08-26T22:35:29.025Z,29.785
2022-08-26T22:40:16.423Z,29.790
2022-08-26T22:45:16.871Z,29.792
2022-08-26T22:50:16.354Z,29.795
2022-08-26T22:55:17.372Z,29.798
2022-08-26T23:00:16.375Z,29.800
2022-08-26T23:05:16.494Z,29.801
2022-08-26T23:10:16.406Z,29.806
2022-08-26T23:15:16.765Z,29.809
2022-08-26T23:20:17.586Z,29.807
2022-08-26T23:25:16.719Z,29.805
2022-08-26T23:30:16.491Z,29.805
2022-08-26T23:35:16.602Z,29.808
2022-08-26T23:40:16.554Z,29.806
2022-08-26T23:45:16.973Z,29.811
2022-08-26T23:50:16.468Z,29.812
2022-08-26T23:55:16.878Z,29.809
